createdAt,value
2022-11-30T00:00:20.838Z,8.19
2022-11-30T00:02:47.780Z,8.12
2022-11-30T00:05:14.447Z,8.10
2022-11-30T00:07:41.215Z,8.02
2022-11-30T00:10:08.368Z,8.12
2022-11-30T00:12:34.983Z,8.10
2022-11-30T00:15:01.486Z,8.13
2022-11-30T00:17:28.158Z,8.08
2022-11-30T00:19:54.702Z,8.06
2022-11-30T00:22:21.289Z,8.14
2022-11-30T00:24:48.114Z,8.11
2022-11-30T00:27:14.826Z,8.12
2022-11-30T00:29:41.731Z,8.02
2022-11-30T00:32:08.274Z,8.07
2022-11-30T00:34:34.827Z,8.11
2022-11-30T00:37:01.454Z,8.13
2022-11-30T00:39:33.910Z,8.05
2022-11-30T00:42:01.971Z,7.96
2022-11-30T00:44:28.545Z,7.97
2022-11-30T00:46:55.018Z,7.73
2022-11-30T00:49:21.507Z,7.79
2022-11-30T00:51:48.006Z,7.78
2022-11-30T00:54:14.543Z,7.80
2022-11-30T00:56:41.338Z,7.76
2022-11-30T00:59:07.911Z,7.70
2022-11-30T01:01:35.788Z,7.86
2022-11-30T01:04:02.829Z,7.98
2022-11-30T01:06:29.371Z,7.79
2022-11-30T01:08:55.908Z,7.95
2022-11-30T01:11:26.505Z,7.90
2022-11-30T01:13:53.378Z,7.82
2022-11-30T01:16:21.600Z,7.78
2022-11-30T01:21:16.496Z,7.81
2022-11-30T01:23:43.148Z,7.96
2022-11-30T01:26:09.716Z,7.88
2022-11-30T01:28:36.645Z,7.90
2022-11-30T01:31:04.438Z,7.91
2022-11-30T01:33:30.976Z,7.96
2022-11-30T01:36:03.973Z,8.05
2022-11-30T01:38:34.392Z,8.02
2022-11-30T01:41:01.362Z,7.96
2022-11-30T01:43:41.414Z,7.91
2022-11-30T01:46:21.439Z,7.94
2022-11-30T01:48:49.036Z,8.00
2022-11-30T01:51:15.552Z,8.04
2022-11-30T01:53:43.118Z,8.01
2022-11-30T01:56:09.639Z,8.01
2022-11-30T01:58:36.732Z,8.02
2022-11-30T02:01:04.063Z,8.00
2022-11-30T02:03:41.625Z,7.91
2022-11-30T02:06:08.396Z,7.94
2022-11-30T02:08:35.559Z,8.01
2022-11-30T02:11:06.296Z,8.01
2022-11-30T02:13:52.804Z,8.06
2022-11-30T02:16:25.484Z,7.91
2022-11-30T02:19:10.941Z,7.86
2022-11-30T02:21:57.736Z,7.97
2022-11-30T02:24:43.355Z,8.03
2022-11-30T02:27:24.185Z,8.02
2022-11-30T02:29:55.308Z,7.91
2022-11-30T02:32:23.448Z,7.90
2022-11-30T02:34:50.046Z,8.04
2022-11-30T02:37:17.282Z,8.06
2022-11-30T02:39:43.995Z,7.94
2022-11-30T02:42:12.584Z,8.03
2022-11-30T02:44:43.677Z,7.90
2022-11-30T02:47:10.881Z,7.95
2022-11-30T02:49:37.344Z,8.00
2022-11-30T02:52:03.950Z,7.93
2022-11-30T02:54:30.532Z,7.90
2022-11-30T02:56:57.776Z,7.81
2022-11-30T02:59:24.285Z,7.93
2022-11-30T03:01:50.997Z,7.89
2022-11-30T03:04:17.553Z,7.91
2022-11-30T03:06:44.042Z,7.97
2022-11-30T03:09:11.037Z,7.87
2022-11-30T03:11:37.548Z,8.01
2022-11-30T03:14:04.135Z,8.01
2022-11-30T03:16:30.792Z,7.92
2022-11-30T03:18:58.219Z,7.87
2022-11-30T03:21:24.858Z,7.95
2022-11-30T03:23:51.365Z,8.02
2022-11-30T03:26:17.959Z,8.06
2022-11-30T03:28:44.501Z,8.13
2022-11-30T03:31:13.111Z,8.19
2022-11-30T03:33:43.382Z,8.00
2022-11-30T03:36:10.791Z,8.05
2022-11-30T03:38:37.657Z,7.96
2022-11-30T03:41:05.233Z,8.03
2022-11-30T03:43:32.182Z,8.10
2022-11-30T03:45:58.833Z,7.93
2022-11-30T03:48:25.548Z,7.89
2022-11-30T03:50:52.435Z,8.04
2022-11-30T03:53:19.941Z,8.01
2022-11-30T03:55:46.660Z,7.97
2022-11-30T03:58:13.208Z,8.02
2022-11-30T04:00:39.747Z,8.06
2022-11-30T04:03:06.429Z,8.01
2022-11-30T04:05:33.017Z,7.96
2022-11-30T04:07:59.944Z,7.89
2022-11-30T04:10:26.671Z,8.02
2022-11-30T04:12:53.179Z,8.01
2022-11-30T04:15:19.689Z,7.93
2022-11-30T04:17:46.231Z,7.95
2022-11-30T04:20:12.954Z,8.06
2022-11-30T04:22:43.568Z,8.01
2022-11-30T04:25:10.093Z,7.93
2022-11-30T04:27:36.587Z,7.94
2022-11-30T04:30:03.210Z,7.86
2022-11-30T04:32:29.741Z,7.90
2022-11-30T04:34:56.278Z,8.01
2022-11-30T04:37:22.855Z,8.03
2022-11-30T04:39:49.336Z,8.03
2022-11-30T04:42:15.928Z,8.04
2022-11-30T04:44:42.600Z,8.02
2022-11-30T04:47:09.103Z,7.88
2022-11-30T04:49:35.578Z,7.89
2022-11-30T04:52:02.192Z,7.86
2022-11-30T04:54:28.792Z,8.05
2022-11-30T04:56:56.000Z,8.00
2022-11-30T04:59:22.550Z,8.04
2022-11-30T05:01:49.140Z,8.03
2022-11-30T05:04:15.779Z,8.09
2022-11-30T05:06:42.395Z,8.00
2022-11-30T05:09:08.912Z,8.02
2022-11-30T05:11:35.489Z,8.06
2022-11-30T05:14:02.254Z,8.05
2022-11-30T05:16:28.902Z,8.06
2022-11-30T05:18:55.542Z,7.89
2022-11-30T05:21:22.575Z,7.82
2022-11-30T05:23:49.053Z,7.85
2022-11-30T05:26:15.811Z,7.84
2022-11-30T05:28:42.718Z,7.88
2022-11-30T05:31:09.314Z,7.83
2022-11-30T05:33:35.915Z,7.97
2022-11-30T05:36:08.829Z,7.98
2022-11-30T05:38:37.318Z,8.04
2022-11-30T05:41:03.829Z,8.12
2022-11-30T05:43:30.415Z,7.90
2022-11-30T05:46:00.981Z,7.94
2022-11-30T05:48:28.125Z,7.97
2022-11-30T05:50:55.248Z,7.99
2022-11-30T05:53:21.797Z,8.02
2022-11-30T05:55:48.358Z,7.83
2022-11-30T05:58:14.902Z,7.90
2022-11-30T06:00:41.557Z,7.96
2022-11-30T06:03:08.205Z,7.87
2022-11-30T06:05:35.383Z,7.98
2022-11-30T06:08:02.427Z,7.89
2022-11-30T06:10:29.136Z,7.95
2022-11-30T06:12:56.120Z,7.97
2022-11-30T06:15:22.714Z,8.06
2022-11-30T06:17:49.267Z,8.06
2022-11-30T06:20:16.242Z,8.01
2022-11-30T06:22:44.717Z,7.95
2022-11-30T06:25:11.236Z,7.96
2022-11-30T06:27:37.824Z,7.98
2022-11-30T06:30:04.670Z,7.96
2022-11-30T06:32:31.186Z,7.95
2022-11-30T06:34:57.793Z,8.02
2022-11-30T06:37:25.024Z,7.84
2022-11-30T06:40:05.956Z,7.83
2022-11-30T06:42:33.667Z,7.94
2022-11-30T06:45:00.242Z,8.00
2022-11-30T06:47:27.051Z,7.89
2022-11-30T06:49:53.990Z,7.94
2022-11-30T06:52:20.983Z,7.93
2022-11-30T06:54:47.817Z,7.93
2022-11-30T06:57:14.646Z,8.02
2022-11-30T06:59:44.247Z,8.09
2022-11-30T07:02:17.959Z,8.04
2022-11-30T07:04:45.545Z,8.05
2022-11-30T07:07:12.389Z,7.89
2022-11-30T07:09:38.908Z,8.00
2022-11-30T07:12:05.698Z,8.05
2022-11-30T07:14:41.727Z,8.07
2022-11-30T07:17:08.561Z,8.03
2022-11-30T07:19:35.299Z,8.08
2022-11-30T07:22:03.092Z,8.05
2022-11-30T07:24:49.269Z,8.16
2022-11-30T07:27:17.963Z,8.00
2022-11-30T07:29:44.776Z,8.10
2022-11-30T07:32:11.404Z,8.13
2022-11-30T07:34:38.014Z,8.04
2022-11-30T07:37:06.876Z,8.20
2022-11-30T07:39:33.422Z,8.30
2022-11-30T07:41:59.979Z,8.18
2022-11-30T07:44:28.940Z,8.21
2022-11-30T07:46:55.775Z,8.21
2022-11-30T07:49:26.267Z,8.25
2022-11-30T07:51:52.894Z,8.24
2022-11-30T07:54:24.473Z,8.24
2022-11-30T07:57:00.603Z,8.32
2022-11-30T07:59:30.266Z,8.52
2022-11-30T08:01:58.759Z,8.66
2022-11-30T08:04:25.466Z,8.78
2022-11-30T08:06:53.201Z,8.78
2022-11-30T08:09:21.003Z,8.86
2022-11-30T08:11:48.553Z,8.77
2022-11-30T08:14:15.119Z,8.72
2022-11-30T08:16:44.170Z,8.90
2022-11-30T08:19:10.735Z,8.95
2022-11-30T08:21:38.200Z,8.70
2022-11-30T08:24:05.021Z,8.62
2022-11-30T08:26:32.405Z,8.76
2022-11-30T08:28:59.926Z,8.78
2022-11-30T08:31:30.761Z,8.55
2022-11-30T08:33:58.059Z,8.68
2022-11-30T08:36:25.344Z,8.52
2022-11-30T08:38:51.882Z,8.65
2022-11-30T08:41:19.615Z,8.54
2022-11-30T08:43:46.341Z,8.55
2022-11-30T08:49:20.895Z,8.50
2022-11-30T08:52:15.936Z,8.49
2022-11-30T08:54:35.633Z,8.67
2022-11-30T08:57:03.163Z,8.52
2022-11-30T08:59:33.348Z,8.48
2022-11-30T09:01:59.880Z,8.52
2022-11-30T09:04:26.534Z,8.48
2022-11-30T09:06:53.082Z,8.72
2022-11-30T09:09:19.760Z,8.71
2022-11-30T09:11:46.879Z,8.76
2022-11-30T09:14:13.429Z,8.81
2022-11-30T09:16:40.194Z,8.90
2022-11-30T09:19:06.729Z,8.88
2022-11-30T09:21:33.497Z,8.89
2022-11-30T09:24:00.086Z,8.98
2022-11-30T09:26:26.799Z,8.81
2022-11-30T09:28:53.932Z,8.93
2022-11-30T09:31:21.621Z,8.88
2022-11-30T09:33:48.230Z,8.86
2022-11-30T09:36:15.993Z,8.79
2022-11-30T09:38:42.733Z,8.65
2022-11-30T09:41:15.472Z,8.67
2022-11-30T09:43:46.045Z,8.41
2022-11-30T09:46:12.692Z,8.48
2022-11-30T09:48:55.837Z,8.63
2022-11-30T09:51:23.877Z,8.33
2022-11-30T09:53:55.549Z,8.35
2022-11-30T09:56:30.343Z,8.36
2022-11-30T09:59:00.412Z,8.49
2022-11-30T10:01:30.565Z,8.45
2022-11-30T10:04:00.084Z,8.54
2022-11-30T10:06:26.585Z,8.46
2022-11-30T10:09:00.137Z,8.50
2022-11-30T10:11:39.267Z,8.71
2022-11-30T10:14:24.443Z,8.81
2022-11-30T10:17:06.171Z,8.95
2022-11-30T10:19:32.853Z,8.93
2022-11-30T10:22:09.330Z,8.91
2022-11-30T10:24:48.281Z,8.97
2022-11-30T10:27:17.046Z,8.93
2022-11-30T10:29:46.717Z,9.15
2022-11-30T10:32:18.693Z,9.08
2022-11-30T10:34:50.001Z,8.96
2022-11-30T10:37:24.209Z,9.07
2022-11-30T10:39:58.041Z,9.29
2022-11-30T10:42:28.853Z,9.16
2022-11-30T10:45:00.195Z,9.10
2022-11-30T10:47:27.200Z,9.02
2022-11-30T10:49:53.789Z,8.93
2022-11-30T10:52:27.406Z,9.17
2022-11-30T10:54:56.938Z,9.01
2022-11-30T10:57:31.622Z,9.09
2022-11-30T10:59:58.993Z,9.16
2022-11-30T11:02:42.741Z,9.16
2022-11-30T11:05:09.266Z,9.19
2022-11-30T11:07:43.596Z,9.28
2022-11-30T11:10:12.492Z,9.41
2022-11-30T11:12:39.078Z,9.25
2022-11-30T11:15:22.524Z,9.31
2022-11-30T11:17:49.349Z,9.20
2022-11-30T11:20:35.227Z,9.21
2022-11-30T11:23:03.075Z,9.16
2022-11-30T11:25:36.640Z,9.14
2022-11-30T11:28:04.674Z,9.05
2022-11-30T11:30:31.513Z,8.96
2022-11-30T11:32:59.747Z,8.92
2022-11-30T11:35:32.467Z,9.08
2022-11-30T11:37:58.994Z,9.12
2022-11-30T11:40:25.531Z,9.17
2022-11-30T11:42:52.649Z,9.32
2022-11-30T11:45:23.120Z,9.28
2022-11-30T11:47:59.822Z,9.44
2022-11-30T11:51:05.712Z,9.72
2022-11-30T11:53:24.899Z,9.92
2022-11-30T11:55:52.674Z,9.73
2022-11-30T11:58:21.566Z,9.82
2022-11-30T12:00:48.346Z,9.74
2022-11-30T12:03:18.812Z,9.36
2022-11-30T12:05:49.574Z,9.43
2022-11-30T12:08:37.998Z,9.38
2022-11-30T12:11:13.902Z,9.20
2022-11-30T12:13:44.197Z,9.23
2022-11-30T12:16:20.710Z,9.19
2022-11-30T12:19:06.064Z,9.09
2022-11-30T12:21:45.090Z,9.02
2022-11-30T12:24:11.612Z,9.07
2022-11-30T12:26:39.652Z,8.84
2022-11-30T12:29:06.165Z,8.89
2022-11-30T12:31:39.698Z,8.76
2022-11-30T12:34:38.876Z,9.00
2022-11-30T12:37:15.509Z,8.94
2022-11-30T12:40:03.463Z,8.99
2022-11-30T12:42:37.119Z,8.94
2022-11-30T12:45:04.130Z,9.17
2022-11-30T12:47:33.796Z,9.26
2022-11-30T12:50:19.251Z,9.50
2022-11-30T12:53:01.620Z,9.59
2022-11-30T12:55:43.888Z,9.31
2022-11-30T12:58:19.607Z,9.16
2022-11-30T13:00:55.666Z,9.35
2022-11-30T13:03:42.702Z,9.39
2022-11-30T13:06:14.183Z,9.43
2022-11-30T13:08:49.664Z,9.27
2022-11-30T13:11:23.259Z,9.44
2022-11-30T13:13:51.150Z,9.39
2022-11-30T13:16:18.176Z,9.17
2022-11-30T13:18:44.859Z,8.98
2022-11-30T13:21:23.704Z,9.26
2022-11-30T13:24:05.852Z,9.39
2022-11-30T13:26:32.491Z,8.93
2022-11-30T13:28:59.010Z,8.82
2022-11-30T13:31:30.391Z,8.79
2022-11-30T13:33:58.302Z,8.66
2022-11-30T13:36:40.443Z,8.99
2022-11-30T13:39:16.570Z,9.11
2022-11-30T13:41:43.930Z,9.19
2022-11-30T13:44:22.921Z,9.09
2022-11-30T13:46:50.227Z,8.98
2022-11-30T13:49:22.274Z,9.02
2022-11-30T13:52:07.206Z,8.86
2022-11-30T13:54:46.173Z,8.96
2022-11-30T13:57:39.130Z,8.94
2022-11-30T14:00:25.221Z,9.00
2022-11-30T14:02:54.469Z,8.84
2022-11-30T14:05:40.331Z,8.89
2022-11-30T14:08:07.180Z,8.84
2022-11-30T14:10:33.826Z,8.91
2022-11-30T14:13:10.751Z,8.87
2022-11-30T14:15:40.942Z,8.76
2022-11-30T14:18:07.421Z,8.75
2022-11-30T14:20:37.967Z,8.82
2022-11-30T14:23:05.479Z,8.67
2022-11-30T14:25:32.086Z,8.74
2022-11-30T14:27:58.691Z,8.63
2022-11-30T14:30:25.354Z,8.63
2022-11-30T14:32:53.205Z,8.65
2022-11-30T14:35:20.453Z,8.68
2022-11-30T14:37:54.389Z,8.54
2022-11-30T14:40:22.539Z,8.48
2022-11-30T14:42:53.116Z,8.46
2022-11-30T14:45:21.410Z,8.56
2022-11-30T14:47:50.422Z,8.59
2022-11-30T14:50:26.579Z,8.43
2022-11-30T14:53:05.465Z,8.40
2022-11-30T14:55:33.792Z,8.39
2022-11-30T14:58:03.980Z,8.38
2022-11-30T15:00:37.035Z,8.34
2022-11-30T15:03:03.814Z,8.44
2022-11-30T15:05:30.939Z,8.43
2022-11-30T15:07:57.600Z,8.52
2022-11-30T15:10:29.449Z,8.50
2022-11-30T15:12:56.596Z,8.42
2022-11-30T15:15:24.531Z,8.46
2022-11-30T15:17:55.284Z,8.41
2022-11-30T15:20:30.935Z,8.44
2022-11-30T15:22:58.239Z,8.36
2022-11-30T15:25:26.393Z,8.43
2022-11-30T15:27:52.948Z,8.25
2022-11-30T15:30:19.676Z,8.17
2022-11-30T15:32:47.072Z,8.33
2022-11-30T15:35:20.732Z,8.41
2022-11-30T15:37:47.255Z,8.28
2022-11-30T15:40:14.919Z,8.33
2022-11-30T15:42:41.507Z,8.31
2022-11-30T15:45:11.092Z,8.27
2022-11-30T15:47:38.203Z,8.29
2022-11-30T15:50:30.705Z,8.20
2022-11-30T15:52:58.097Z,8.29
2022-11-30T15:55:44.329Z,8.23
2022-11-30T15:58:27.666Z,8.45
2022-11-30T16:01:00.338Z,8.41
2022-11-30T16:03:27.004Z,8.39
2022-11-30T16:05:55.214Z,8.23
2022-11-30T16:08:21.781Z,8.21
2022-11-30T16:10:48.422Z,8.35
2022-11-30T16:13:15.919Z,8.24
2022-11-30T16:15:51.888Z,8.31
2022-11-30T16:18:20.875Z,8.36
2022-11-30T16:20:49.428Z,8.24
2022-11-30T16:23:16.316Z,8.30
2022-11-30T16:25:43.710Z,8.31
2022-11-30T16:28:10.663Z,8.29
2022-11-30T16:30:37.275Z,8.40
2022-11-30T16:33:03.897Z,8.42
2022-11-30T16:35:37.281Z,8.31
2022-11-30T16:38:03.872Z,8.15
2022-11-30T16:40:34.011Z,8.21
2022-11-30T16:43:04.948Z,8.26
2022-11-30T16:45:37.696Z,8.21
2022-11-30T16:48:04.644Z,8.24
2022-11-30T16:50:34.854Z,8.26
2022-11-30T16:53:01.955Z,8.31
2022-11-30T16:55:29.796Z,8.19
2022-11-30T16:57:56.488Z,8.21
2022-11-30T17:00:23.335Z,8.01
2022-11-30T17:03:11.337Z,8.01
2022-11-30T17:05:38.107Z,8.00
2022-11-30T17:08:04.770Z,8.18
2022-11-30T17:10:31.698Z,8.17
2022-11-30T17:12:58.239Z,8.02
2022-11-30T17:15:25.036Z,8.09
2022-11-30T17:17:52.188Z,8.04
2022-11-30T17:20:18.739Z,8.11
2022-11-30T17:22:45.741Z,7.94
2022-11-30T17:25:16.470Z,8.01
2022-11-30T17:27:43.166Z,7.94
2022-11-30T17:30:10.245Z,7.89
2022-11-30T17:32:36.945Z,7.92
2022-11-30T17:35:03.793Z,7.69
2022-11-30T17:37:30.367Z,7.94
2022-11-30T17:39:57.457Z,7.89
2022-11-30T17:42:24.119Z,7.76
2022-11-30T17:44:51.289Z,7.79
2022-11-30T17:47:17.991Z,7.81
2022-11-30T17:49:44.619Z,7.82
2022-11-30T17:52:11.231Z,7.72
2022-11-30T17:54:37.761Z,7.67
2022-11-30T17:57:04.577Z,7.68
2022-11-30T17:59:32.135Z,7.79
2022-11-30T18:01:58.797Z,7.69
2022-11-30T18:04:25.337Z,7.68
2022-11-30T18:06:52.480Z,7.52
2022-11-30T18:09:19.079Z,7.69
2022-11-30T18:11:45.687Z,7.62
2022-11-30T18:14:12.253Z,7.60
2022-11-30T18:16:39.002Z,7.63
2022-11-30T18:19:12.089Z,7.39
2022-11-30T18:21:40.072Z,7.58
2022-11-30T18:24:06.833Z,7.64
2022-11-30T18:26:35.589Z,7.64
2022-11-30T18:29:02.326Z,7.58
2022-11-30T18:31:29.744Z,7.52
2022-11-30T18:34:00.582Z,7.55
2022-11-30T18:36:27.499Z,7.61
2022-11-30T18:38:54.115Z,7.55
2022-11-30T18:41:20.685Z,7.56
2022-11-30T18:43:47.230Z,7.56
2022-11-30T18:46:13.963Z,7.19
2022-11-30T18:48:41.050Z,7.36
2022-11-30T18:51:15.071Z,7.28
2022-11-30T18:53:41.679Z,7.22
2022-11-30T18:56:20.616Z,7.22
2022-11-30T18:58:47.474Z,7.21
2022-11-30T19:01:14.211Z,7.21
2022-11-30T19:03:41.032Z,7.29
2022-11-30T19:06:08.230Z,7.21
2022-11-30T19:08:35.085Z,6.82
2022-11-30T19:11:05.232Z,7.03
2022-11-30T19:13:32.835Z,7.07
2022-11-30T19:16:03.115Z,7.04
2022-11-30T19:18:29.821Z,7.01
2022-11-30T19:20:56.360Z,7.00
2022-11-30T19:23:23.887Z,6.94
2022-11-30T19:25:50.495Z,7.08
2022-11-30T19:28:17.384Z,7.00
2022-11-30T19:30:44.012Z,7.02
2022-11-30T19:33:10.754Z,7.14
2022-11-30T19:35:38.574Z,6.93
2022-11-30T19:38:05.103Z,6.85
2022-11-30T19:40:31.928Z,6.81
2022-11-30T19:42:59.518Z,6.84
2022-11-30T19:45:26.062Z,6.81
2022-11-30T19:47:52.644Z,6.84
2022-11-30T19:50:19.298Z,6.65
2022-11-30T19:52:48.463Z,6.43
2022-11-30T19:55:15.760Z,6.53
2022-11-30T19:57:42.348Z,6.53
2022-11-30T20:00:09.383Z,6.52
2022-11-30T20:02:42.255Z,6.63
2022-11-30T20:05:09.145Z,6.62
2022-11-30T20:07:36.539Z,6.40
2022-11-30T20:10:03.306Z,6.44
2022-11-30T20:12:29.963Z,6.65
2022-11-30T20:14:56.530Z,6.43
2022-11-30T20:17:24.727Z,6.57
2022-11-30T20:19:51.387Z,6.42
2022-11-30T20:22:18.012Z,6.44
2022-11-30T20:24:44.579Z,6.21
2022-11-30T20:27:11.185Z,6.15
2022-11-30T20:29:37.794Z,6.18
2022-11-30T20:32:04.473Z,6.26
2022-11-30T20:34:34.647Z,6.08
2022-11-30T20:37:02.465Z,6.30
2022-11-30T20:39:29.164Z,6.41
2022-11-30T20:41:55.700Z,6.37
2022-11-30T20:44:22.260Z,6.13
2022-11-30T20:46:49.060Z,5.91
2022-11-30T20:49:17.995Z,6.12
2022-11-30T20:51:44.982Z,6.19
2022-11-30T20:54:12.109Z,6.33
2022-11-30T20:56:38.797Z,6.38
2022-11-30T20:59:09.667Z,6.46
2022-11-30T21:01:36.292Z,6.28
2022-11-30T21:04:02.921Z,6.37
2022-11-30T21:06:29.901Z,6.28
2022-11-30T21:08:56.531Z,6.11
2022-11-30T21:11:23.455Z,5.97
2022-11-30T21:13:50.579Z,6.11
2022-11-30T21:16:22.530Z,6.12
2022-11-30T21:18:52.387Z,6.18
2022-11-30T21:21:20.363Z,6.17
2022-11-30T21:23:47.707Z,6.00
2022-11-30T21:26:14.727Z,5.88
2022-11-30T21:28:41.305Z,5.75
2022-11-30T21:31:07.946Z,5.86
2022-11-30T21:33:34.538Z,6.06
2022-11-30T21:36:04.342Z,5.81
2022-11-30T21:38:31.019Z,5.87
2022-11-30T21:40:59.091Z,6.06
2022-11-30T21:43:26.589Z,5.91
2022-11-30T21:45:59.755Z,5.71
2022-11-30T21:48:28.047Z,5.97
2022-11-30T21:50:59.072Z,6.10
2022-11-30T21:53:26.071Z,6.03
2022-11-30T21:55:55.737Z,6.11
2022-11-30T21:58:22.679Z,6.13
2022-11-30T22:00:56.021Z,6.10
2022-11-30T22:03:22.856Z,6.14
2022-11-30T22:06:15.729Z,6.08
2022-11-30T22:08:42.255Z,5.96
2022-11-30T22:11:09.530Z,5.99
2022-11-30T22:13:36.558Z,5.85
2022-11-30T22:16:04.354Z,6.10
2022-11-30T22:18:31.334Z,5.69
2022-11-30T22:21:03.077Z,5.78
2022-11-30T22:23:29.642Z,5.98
2022-11-30T22:26:06.847Z,5.88
2022-11-30T22:28:33.415Z,5.80
2022-11-30T22:31:03.917Z,5.96
2022-11-30T22:33:31.883Z,6.02
2022-11-30T22:35:58.451Z,5.57
2022-11-30T22:38:25.489Z,5.80
2022-11-30T22:40:52.270Z,5.80
2022-11-30T22:43:18.869Z,5.85
2022-11-30T22:45:45.421Z,5.93
2022-11-30T22:48:12.137Z,5.83
2022-11-30T22:50:38.738Z,5.95
2022-11-30T22:53:05.387Z,5.97
2022-11-30T22:55:32.087Z,5.97
2022-11-30T22:57:58.715Z,5.82
2022-11-30T23:00:25.233Z,5.82
2022-11-30T23:02:51.872Z,5.79
2022-11-30T23:05:18.524Z,5.58
2022-11-30T23:07:45.166Z,5.69
2022-11-30T23:10:11.976Z,5.73
2022-11-30T23:12:58.361Z,5.76
2022-11-30T23:15:25.035Z,5.73
2022-11-30T23:17:51.680Z,5.55
2022-11-30T23:20:18.215Z,5.65
2022-11-30T23:22:44.814Z,5.65
2022-11-30T23:25:11.379Z,5.49
2022-11-30T23:27:37.943Z,5.52
2022-11-30T23:30:04.961Z,5.65
2022-11-30T23:32:31.674Z,5.68
2022-11-30T23:34:58.265Z,5.71
2022-11-30T23:37:24.805Z,5.70
2022-11-30T23:39:51.307Z,5.71
2022-11-30T23:42:17.814Z,5.66
2022-11-30T23:44:44.766Z,5.43
2022-11-30T23:47:15.400Z,5.48
2022-11-30T23:49:44.622Z,5.47
2022-11-30T23:52:11.224Z,5.38
2022-11-30T23:54:37.803Z,5.53
2022-11-30T23:57:04.805Z,5.49
2022-11-30T23:59:31.388Z,5.51
